createdAt,value
2018-09-06T00:00:44.433Z,27.10
2018-09-06T00:03:16.486Z,25.70
2018-09-06T00:05:48.545Z,24.03
2018-09-06T00:08:20.669Z,27.50
2018-09-06T00:10:52.741Z,27.17
2018-09-06T00:13:24.768Z,24.87
2018-09-06T00:15:56.851Z,25.77
2018-09-06T00:18:28.893Z,26.17
2018-09-06T00:21:00.933Z,26.97
2018-09-06T00:23:33.113Z,26.60
2018-09-06T00:26:05.189Z,25.43
2018-09-06T00:28:37.225Z,26.70
2018-09-06T00:31:09.288Z,25.67
2018-09-06T00:33:41.369Z,26.27
2018-09-06T00:36:13.457Z,24.83
2018-09-06T00:38:45.468Z,24.40
2018-09-06T00:41:17.526Z,26.23
2018-09-06T00:43:49.562Z,23.93
2018-09-06T00:46:21.572Z,26.50
2018-09-06T00:48:53.692Z,25.27
2018-09-06T00:51:25.819Z,25.47
2018-09-06T00:53:57.836Z,28.70
2018-09-06T00:56:29.950Z,28.63
2018-09-06T00:59:02.039Z,30.50
2018-09-06T01:01:34.103Z,27.77
2018-09-06T01:04:06.143Z,26.83
2018-09-06T01:06:38.237Z,27.00
2018-09-06T01:09:10.278Z,28.53
2018-09-06T01:11:42.281Z,29.23
2018-09-06T01:14:14.389Z,25.30
2018-09-06T01:16:46.382Z,24.40
2018-09-06T01:19:18.387Z,25.27
2018-09-06T01:21:50.392Z,24.73
2018-09-06T01:24:22.466Z,25.10
2018-09-06T01:26:54.476Z,25.70
2018-09-06T01:29:26.492Z,28.13
2018-09-06T01:31:58.727Z,26.23
2018-09-06T01:34:30.913Z,24.83
2018-09-06T01:37:07.758Z,27.10
2018-09-06T01:39:40.208Z,29.80
2018-09-06T01:42:12.225Z,26.50
2018-09-06T01:44:44.257Z,27.33
2018-09-06T01:47:16.323Z,28.57
2018-09-06T01:49:48.352Z,29.33
2018-09-06T01:52:20.379Z,37.60
2018-09-06T01:54:52.476Z,26.43
2018-09-06T01:57:24.468Z,28.50
2018-09-06T01:59:56.491Z,28.93
2018-09-06T02:02:29.582Z,27.90
2018-09-06T02:05:01.583Z,24.67
2018-09-06T02:07:33.655Z,30.70
2018-09-06T02:10:05.662Z,26.23
2018-09-06T02:12:37.664Z,25.80
2018-09-06T02:15:09.713Z,24.73
2018-09-06T02:17:41.722Z,24.83
2018-09-06T02:20:13.748Z,24.53
2018-09-06T02:22:45.799Z,30.40
2018-09-06T02:25:17.897Z,22.53
2018-09-06T02:27:49.940Z,25.40
2018-09-06T02:30:21.994Z,25.97
2018-09-06T02:32:53.994Z,25.40
2018-09-06T02:35:26.031Z,24.00
2018-09-06T02:37:58.083Z,25.67
2018-09-06T02:40:35.897Z,24.90
2018-09-06T02:43:09.971Z,24.40
2018-09-06T02:45:43.220Z,25.67
2018-09-06T02:48:15.237Z,24.87
2018-09-06T02:50:52.750Z,24.53
2018-09-06T02:53:28.670Z,26.50
2018-09-06T02:56:00.638Z,24.73
2018-09-06T02:58:32.743Z,26.57
2018-09-06T03:01:04.924Z,26.03
2018-09-06T03:03:36.961Z,27.20
2018-09-06T03:06:09.097Z,26.47
2018-09-06T03:08:41.296Z,25.00
2018-09-06T03:11:15.642Z,25.43
2018-09-06T03:13:47.639Z,26.10
2018-09-06T03:16:19.753Z,25.50
2018-09-06T03:18:51.777Z,25.00
2018-09-06T03:21:23.750Z,24.23
2018-09-06T03:23:55.716Z,22.53
2018-09-06T03:26:27.776Z,26.27
2018-09-06T03:28:59.761Z,23.33
2018-09-06T03:31:31.828Z,23.90
2018-09-06T03:34:03.899Z,24.80
2018-09-06T03:36:35.972Z,26.17
2018-09-06T03:39:08.371Z,27.30
2018-09-06T03:41:40.457Z,24.50
2018-09-06T03:44:12.500Z,22.50
2018-09-06T03:46:44.588Z,25.63
2018-09-06T03:49:16.644Z,22.43
2018-09-06T03:51:48.662Z,22.50
2018-09-06T03:54:20.728Z,23.97
2018-09-06T03:56:52.714Z,25.43
2018-09-06T03:59:24.719Z,23.40
2018-09-06T04:01:56.831Z,23.40
2018-09-06T04:04:28.835Z,25.00
2018-09-06T04:07:00.937Z,26.37
2018-09-06T04:09:33.031Z,26.40
2018-09-06T04:12:05.058Z,25.43
2018-09-06T04:14:37.059Z,26.37
2018-09-06T04:17:09.079Z,25.77
2018-09-06T04:19:41.126Z,25.93
2018-09-06T04:22:13.161Z,26.03
2018-09-06T04:24:45.181Z,27.93
2018-09-06T04:27:17.176Z,25.30
2018-09-06T04:29:49.202Z,29.17
2018-09-06T04:32:21.190Z,26.17
2018-09-06T04:34:53.207Z,26.47
2018-09-06T04:37:25.218Z,26.10
2018-09-06T04:39:57.208Z,24.73
2018-09-06T04:42:29.300Z,26.40
2018-09-06T04:45:01.357Z,25.83
2018-09-06T04:47:33.363Z,26.23
2018-09-06T04:50:05.416Z,24.93
2018-09-06T04:52:37.423Z,24.30
2018-09-06T04:55:09.458Z,24.03
2018-09-06T04:57:41.465Z,24.83
2018-09-06T05:00:13.499Z,24.10
2018-09-06T05:02:45.531Z,23.80
2018-09-06T05:05:17.581Z,24.60
2018-09-06T05:07:49.607Z,21.80
2018-09-06T05:10:21.614Z,25.80
2018-09-06T05:12:53.633Z,21.50
2018-09-06T05:15:25.699Z,22.67
2018-09-06T05:17:57.809Z,22.67
2018-09-06T05:20:29.894Z,23.30
2018-09-06T05:23:02.661Z,24.63
2018-09-06T05:25:34.996Z,22.60
2018-09-06T05:28:07.010Z,26.00
2018-09-06T05:30:39.096Z,26.13
2018-09-06T05:33:11.034Z,25.60
2018-09-06T05:35:43.162Z,27.43
2018-09-06T05:38:15.205Z,24.10
2018-09-06T05:40:47.264Z,25.17
2018-09-06T05:43:19.299Z,24.77
2018-09-06T05:45:51.310Z,24.77
2018-09-06T05:48:23.330Z,24.60
2018-09-06T05:50:55.331Z,23.70
2018-09-06T05:53:27.368Z,25.73
2018-09-06T05:55:59.406Z,24.67
2018-09-06T05:58:31.580Z,24.60
2018-09-06T06:01:03.668Z,25.73
2018-09-06T06:03:35.634Z,24.30
2018-09-06T06:06:07.760Z,24.33
2018-09-06T06:08:41.836Z,24.87
2018-09-06T06:11:13.878Z,25.47
2018-09-06T06:13:45.943Z,23.90
2018-09-06T06:16:18.034Z,24.47
2018-09-06T06:18:50.108Z,23.30
2018-09-06T06:21:22.125Z,23.27
2018-09-06T06:23:54.086Z,23.67
2018-09-06T06:26:26.132Z,21.40
2018-09-06T06:28:58.103Z,20.40
2018-09-06T06:31:30.098Z,19.27
2018-09-06T06:34:02.126Z,19.27
2018-09-06T06:36:34.095Z,20.37
2018-09-06T06:39:08.245Z,18.90
2018-09-06T06:41:40.556Z,22.00
2018-09-06T06:44:12.522Z,19.93
2018-09-06T06:46:44.531Z,19.20
2018-09-06T06:49:16.500Z,19.60
2018-09-06T06:51:48.538Z,19.67
2018-09-06T06:54:20.547Z,21.20
2018-09-06T06:56:52.578Z,18.90
2018-09-06T06:59:24.910Z,18.10
2018-09-06T07:01:56.898Z,18.37
2018-09-06T07:04:28.916Z,19.00
2018-09-06T07:07:01.627Z,17.63
2018-09-06T07:09:33.607Z,18.07
2018-09-06T07:12:05.699Z,16.37
2018-09-06T07:14:37.754Z,16.60
2018-09-06T07:17:09.739Z,15.93
2018-09-06T07:19:41.758Z,16.67
2018-09-06T07:22:13.778Z,24.53
2018-09-06T07:24:45.776Z,82.30
2018-09-06T07:27:17.921Z,56.67
2018-09-06T07:29:49.903Z,18.13
2018-09-06T07:32:21.967Z,19.07
2018-09-06T07:34:54.012Z,19.33
2018-09-06T07:37:26.014Z,19.20
2018-09-06T07:39:58.085Z,24.40
2018-09-06T07:42:30.116Z,23.70
2018-09-06T07:45:02.471Z,20.67
2018-09-06T07:47:34.503Z,20.17
2018-09-06T07:50:06.555Z,19.73
2018-09-06T07:52:38.650Z,29.73
2018-09-06T07:55:10.671Z,22.97
2018-09-06T07:57:42.774Z,19.87
2018-09-06T08:00:14.802Z,19.33
2018-09-06T08:02:46.814Z,18.90
2018-09-06T08:05:18.902Z,19.53
2018-09-06T08:07:50.926Z,23.23
2018-09-06T08:10:22.983Z,20.63
2018-09-06T08:12:55.065Z,22.50
2018-09-06T08:15:27.093Z,22.80
2018-09-06T08:17:59.147Z,21.10
2018-09-06T08:20:31.222Z,22.70
2018-09-06T08:23:03.295Z,23.00
2018-09-06T08:25:35.312Z,23.90
2018-09-06T08:28:07.343Z,23.23
2018-09-06T08:30:39.454Z,25.27
2018-09-06T08:33:11.387Z,22.70
2018-09-06T08:35:43.422Z,23.37
2018-09-06T08:38:15.426Z,21.33
2018-09-06T08:40:47.432Z,21.00
2018-09-06T08:43:19.473Z,20.60
2018-09-06T08:45:51.511Z,19.57
2018-09-06T08:48:23.514Z,18.57
2018-09-06T08:50:55.542Z,18.20
2018-09-06T08:53:27.558Z,18.60
2018-09-06T08:55:59.538Z,17.40
2018-09-06T08:58:31.545Z,18.73
2018-09-06T09:01:09.182Z,19.67
2018-09-06T09:03:41.188Z,19.97
2018-09-06T09:06:13.252Z,19.07
2018-09-06T09:08:45.276Z,18.70
2018-09-06T09:11:17.384Z,20.00
2018-09-06T09:13:49.419Z,19.63
2018-09-06T09:16:21.398Z,25.50
2018-09-06T09:18:53.395Z,18.57
2018-09-06T09:21:25.554Z,19.57
2018-09-06T09:23:57.625Z,18.33
2018-09-06T09:26:29.655Z,25.83
2018-09-06T09:29:01.886Z,18.63
2018-09-06T09:31:33.913Z,17.20
2018-09-06T09:34:06.107Z,16.33
2018-09-06T09:36:38.128Z,17.57
2018-09-06T09:39:10.365Z,16.90
2018-09-06T09:41:42.387Z,15.77
2018-09-06T09:44:14.453Z,14.80
2018-09-06T09:49:18.027Z,14.30
2018-09-06T09:51:50.154Z,14.97
2018-09-06T09:54:22.221Z,14.00
2018-09-06T09:56:54.337Z,14.73
2018-09-06T09:59:26.337Z,14.30
2018-09-06T10:02:04.103Z,15.70
2018-09-06T10:04:39.342Z,13.47
2018-09-06T10:07:17.108Z,14.90
2018-09-06T10:09:49.272Z,14.37
2018-09-06T10:12:21.294Z,14.50
2018-09-06T10:14:53.280Z,14.30
2018-09-06T10:20:04.035Z,14.73
2018-09-06T10:22:36.166Z,13.77
2018-09-06T10:25:08.228Z,12.83
2018-09-06T10:27:40.345Z,13.30
2018-09-06T10:30:12.375Z,13.60
2018-09-06T10:32:44.435Z,13.57
2018-09-06T10:35:16.522Z,14.03
2018-09-06T10:37:48.560Z,13.30
2018-09-06T10:40:20.553Z,13.53
2018-09-06T10:42:52.554Z,13.60
2018-09-06T10:45:24.548Z,12.80
2018-09-06T10:47:56.600Z,13.73
2018-09-06T10:50:28.581Z,12.60
2018-09-06T10:53:00.642Z,13.03
2018-09-06T10:55:32.658Z,13.57
2018-09-06T10:58:04.710Z,12.00
2018-09-06T11:00:36.725Z,12.20
2018-09-06T11:03:08.823Z,12.83
2018-09-06T11:05:40.846Z,12.23
2018-09-06T11:08:12.963Z,13.47
2018-09-06T11:10:44.985Z,12.70
2018-09-06T11:13:17.161Z,12.53
2018-09-06T11:15:49.143Z,11.03
2018-09-06T11:18:21.128Z,12.07
2018-09-06T11:20:53.131Z,11.53
2018-09-06T11:23:25.221Z,10.37
2018-09-06T11:25:57.224Z,10.13
2018-09-06T11:28:29.254Z,9.93
2018-09-06T11:31:01.311Z,9.00
2018-09-06T11:33:33.339Z,11.00
2018-09-06T11:36:05.384Z,9.27
2018-09-06T11:38:37.415Z,8.77
2018-09-06T11:41:09.474Z,10.70
2018-09-06T11:43:41.533Z,10.00
2018-09-06T11:46:13.598Z,8.63
2018-09-06T11:48:45.626Z,8.70
2018-09-06T11:51:17.670Z,7.87
2018-09-06T11:53:49.700Z,8.57
2018-09-06T11:56:21.759Z,9.37
2018-09-06T11:58:53.991Z,8.73
2018-09-06T12:01:26.200Z,7.90
2018-09-06T12:03:58.279Z,8.20
2018-09-06T12:06:30.287Z,9.60
2018-09-06T12:09:02.452Z,7.40
2018-09-06T12:11:35.219Z,7.07
2018-09-06T12:14:07.254Z,7.30
2018-09-06T12:16:39.266Z,8.83
2018-09-06T12:19:11.306Z,8.20
2018-09-06T12:21:43.346Z,10.13
2018-09-06T12:24:15.413Z,7.83
2018-09-06T12:26:47.464Z,7.43
2018-09-06T12:29:19.484Z,7.70
2018-09-06T12:31:51.561Z,8.40
2018-09-06T12:34:23.575Z,7.33
2018-09-06T12:36:55.675Z,8.13
2018-09-06T12:39:27.696Z,8.30
2018-09-06T12:41:59.766Z,8.37
2018-09-06T12:44:31.843Z,7.40
2018-09-06T12:47:03.926Z,6.67
2018-09-06T12:49:36.026Z,9.00
2018-09-06T12:52:08.039Z,7.27
2018-09-06T12:54:40.141Z,7.30
2018-09-06T12:57:12.155Z,7.37
2018-09-06T12:59:44.220Z,7.50
2018-09-06T13:02:16.259Z,7.57
2018-09-06T13:04:48.468Z,8.53
2018-09-06T13:07:20.490Z,6.87
2018-09-06T13:09:52.532Z,7.40
2018-09-06T13:12:24.534Z,7.23
2018-09-06T13:15:03.303Z,7.23
2018-09-06T13:17:35.318Z,7.73
2018-09-06T13:20:07.402Z,6.90
2018-09-06T13:22:39.416Z,6.90
2018-09-06T13:25:11.443Z,7.20
2018-09-06T13:27:43.550Z,7.40
2018-09-06T13:30:15.562Z,7.90
2018-09-06T13:32:47.693Z,7.40
2018-09-06T13:35:19.721Z,7.50
2018-09-06T13:37:51.761Z,8.60
2018-09-06T13:40:23.771Z,6.80
2018-09-06T13:42:55.760Z,7.10
2018-09-06T13:45:27.771Z,6.40
2018-09-06T13:47:59.772Z,7.37
2018-09-06T13:50:31.804Z,7.03
2018-09-06T13:53:03.804Z,6.67
2018-09-06T13:55:35.803Z,6.93
2018-09-06T13:58:07.803Z,7.27
2018-09-06T14:00:39.802Z,7.53
2018-09-06T14:03:11.827Z,6.47
2018-09-06T14:05:43.876Z,6.80
2018-09-06T14:08:15.843Z,6.00
2018-09-06T14:10:47.918Z,7.30
2018-09-06T14:13:19.990Z,7.10
2018-09-06T14:15:51.990Z,6.27
2018-09-06T14:18:24.044Z,6.63
2018-09-06T14:20:56.120Z,6.80
2018-09-06T14:23:30.310Z,6.87
2018-09-06T14:26:03.750Z,8.00
2018-09-06T14:28:37.227Z,7.10
2018-09-06T14:31:09.360Z,8.10
2018-09-06T14:33:41.348Z,7.70
2018-09-06T14:36:13.363Z,7.13
2018-09-06T14:39:48.651Z,6.20
2018-09-06T14:42:20.660Z,7.03
2018-09-06T14:44:52.779Z,6.93
2018-09-06T14:47:24.786Z,7.80
2018-09-06T14:49:56.779Z,7.67
2018-09-06T14:52:28.819Z,7.53
2018-09-06T14:55:00.826Z,7.60
2018-09-06T14:57:32.829Z,7.73
2018-09-06T15:00:04.911Z,7.43
2018-09-06T15:02:36.979Z,7.67
2018-09-06T15:05:09.033Z,7.10
2018-09-06T15:07:41.031Z,7.93
2018-09-06T15:10:13.049Z,8.17
2018-09-06T15:12:45.051Z,7.90
2018-09-06T15:15:17.136Z,7.83
2018-09-06T15:17:49.181Z,7.80
2018-09-06T15:20:21.183Z,7.50
2018-09-06T15:22:53.184Z,7.30
2018-09-06T15:25:25.183Z,7.40
2018-09-06T15:27:57.238Z,8.30
2018-09-06T15:30:29.258Z,7.80
2018-09-06T15:33:01.324Z,7.13
2018-09-06T15:35:33.398Z,7.60
2018-09-06T15:38:06.001Z,7.80
2018-09-06T15:40:38.076Z,7.70
2018-09-06T15:43:12.051Z,7.57
2018-09-06T15:45:44.229Z,7.67
2018-09-06T15:48:16.418Z,8.60
2018-09-06T15:50:48.639Z,8.00
2018-09-06T15:53:20.811Z,7.43
2018-09-06T15:55:53.069Z,7.77
2018-09-06T15:58:32.027Z,7.17
2018-09-06T16:01:04.162Z,9.23
2018-09-06T16:03:36.337Z,7.63
2018-09-06T16:06:08.480Z,7.83
2018-09-06T16:08:40.631Z,8.43
2018-09-06T16:11:12.761Z,8.20
2018-09-06T16:13:45.045Z,8.40
2018-09-06T16:16:17.161Z,8.20
2018-09-06T16:18:49.901Z,8.50
2018-09-06T16:21:22.046Z,7.90
2018-09-06T16:23:54.147Z,7.83
2018-09-06T16:26:26.241Z,8.30
2018-09-06T16:28:58.422Z,9.03
2018-09-06T16:31:30.821Z,7.10
2018-09-06T16:34:03.014Z,8.53
2018-09-06T16:36:35.159Z,7.80
2018-09-06T16:39:08.474Z,8.13
2018-09-06T16:41:41.067Z,7.90
2018-09-06T16:44:14.256Z,8.50
2018-09-06T16:46:46.335Z,8.23
2018-09-06T16:49:18.448Z,8.70
2018-09-06T16:51:50.533Z,7.73
2018-09-06T16:54:22.728Z,8.43
2018-09-06T16:56:54.851Z,7.70
2018-09-06T16:59:26.978Z,8.83
2018-09-06T17:01:59.396Z,8.67
2018-09-06T17:04:31.573Z,8.60
2018-09-06T17:07:03.672Z,8.13
2018-09-06T17:09:35.749Z,8.50
2018-09-06T17:12:07.882Z,7.10
2018-09-06T17:14:40.213Z,9.37
2018-09-06T17:17:12.316Z,7.33
2018-09-06T17:19:44.411Z,9.03
2018-09-06T17:22:16.451Z,8.10
2018-09-06T17:24:48.507Z,7.60
2018-09-06T17:27:20.948Z,8.53
2018-09-06T17:29:53.133Z,7.57
2018-09-06T17:32:25.338Z,8.57
2018-09-06T17:34:57.371Z,7.87
2018-09-06T17:37:29.491Z,8.17
2018-09-06T17:40:01.638Z,11.40
2018-09-06T17:42:34.073Z,9.20
2018-09-06T17:45:06.205Z,9.20
2018-09-06T17:47:38.343Z,10.50
2018-09-06T17:50:10.506Z,8.97
2018-09-06T17:52:42.603Z,9.53
2018-09-06T17:55:14.676Z,9.87
2018-09-06T17:57:46.732Z,9.30
2018-09-06T18:00:18.843Z,13.83
2018-09-06T18:02:51.018Z,9.00
2018-09-06T18:05:23.136Z,10.33
2018-09-06T18:07:55.317Z,10.07
2018-09-06T18:10:27.409Z,13.07
2018-09-06T18:12:59.534Z,10.40
2018-09-06T18:15:31.614Z,9.57
2018-09-06T18:18:03.842Z,11.73
2018-09-06T18:20:36.020Z,9.77
2018-09-06T18:23:08.123Z,9.13
2018-09-06T18:25:40.209Z,9.87
2018-09-06T18:28:12.381Z,9.83
2018-09-06T18:30:44.439Z,8.70
2018-09-06T18:33:16.656Z,8.67
2018-09-06T18:35:48.922Z,9.70
2018-09-06T18:38:21.028Z,9.60
2018-09-06T18:40:53.134Z,12.20
2018-09-06T18:43:25.209Z,9.40
2018-09-06T18:45:57.345Z,9.73
2018-09-06T18:48:29.444Z,10.37
2018-09-06T18:51:01.603Z,10.37
2018-09-06T18:53:33.739Z,10.60
2018-09-06T18:56:05.917Z,12.13
2018-09-06T18:58:38.110Z,11.30
2018-09-06T19:01:10.262Z,12.50
2018-09-06T19:03:42.379Z,12.03
2018-09-06T19:06:14.508Z,11.73
2018-09-06T19:08:46.566Z,14.60
2018-09-06T19:11:19.052Z,11.70
2018-09-06T19:13:51.128Z,12.00
2018-09-06T19:16:23.344Z,12.07
2018-09-06T19:18:55.547Z,11.90
2018-09-06T19:21:27.897Z,10.90
2018-09-06T19:24:00.213Z,12.63
2018-09-06T19:26:32.333Z,19.63
2018-09-06T19:29:04.433Z,12.17
2018-09-06T19:31:36.545Z,13.17
2018-09-06T19:34:08.653Z,12.17
2018-09-06T19:36:40.802Z,13.30
2018-09-06T19:39:12.986Z,11.57
2018-09-06T19:41:45.120Z,16.70
2018-09-06T19:44:17.285Z,11.70
2018-09-06T19:46:49.469Z,12.20
2018-09-06T19:49:21.572Z,11.47
2018-09-06T19:51:53.656Z,12.07
2018-09-06T19:54:25.868Z,12.73
2018-09-06T19:56:57.933Z,12.90
2018-09-06T19:59:30.185Z,13.80
2018-09-06T20:02:02.446Z,13.00
2018-09-06T20:04:34.526Z,14.50
2018-09-06T20:07:06.677Z,12.13
2018-09-06T20:09:38.804Z,11.90
2018-09-06T20:12:10.922Z,13.43
2018-09-06T20:14:43.073Z,13.80
2018-09-06T20:17:15.197Z,14.00
2018-09-06T20:19:47.301Z,14.00
2018-09-06T20:22:19.438Z,12.37
2018-09-06T20:24:51.541Z,14.10
2018-09-06T20:27:24.423Z,13.50
2018-09-06T20:29:56.511Z,12.73
2018-09-06T20:32:28.576Z,13.10
2018-09-06T20:35:00.708Z,12.90
2018-09-06T20:37:32.775Z,12.00
2018-09-06T20:40:04.956Z,12.70
2018-09-06T20:42:37.127Z,13.07
2018-09-06T20:45:09.233Z,14.00
2018-09-06T20:47:41.396Z,14.27
2018-09-06T20:50:13.684Z,14.07
2018-09-06T20:52:45.811Z,14.63
2018-09-06T20:55:17.910Z,14.60
2018-09-06T20:57:50.061Z,13.33
2018-09-06T21:00:22.255Z,13.00
2018-09-06T21:02:55.443Z,14.10
2018-09-06T21:05:27.612Z,13.60
2018-09-06T21:07:59.815Z,15.13
2018-09-06T21:10:32.003Z,14.37
2018-09-06T21:13:04.115Z,14.00
2018-09-06T21:15:36.322Z,13.53
2018-09-06T21:18:08.761Z,13.53
2018-09-06T21:20:40.940Z,15.10
2018-09-06T21:23:13.142Z,13.63
2018-09-06T21:25:45.307Z,14.00
2018-09-06T21:28:17.414Z,13.27
2018-09-06T21:30:49.581Z,14.73
2018-09-06T21:33:21.676Z,15.50
2018-09-06T21:35:53.777Z,14.60
2018-09-06T21:38:26.464Z,13.80
2018-09-06T21:40:58.562Z,15.07
2018-09-06T21:43:31.345Z,15.17
2018-09-06T21:46:03.759Z,15.47
2018-09-06T21:48:35.821Z,15.37
2018-09-06T21:51:08.656Z,14.60
2018-09-06T21:53:40.756Z,14.90
2018-09-06T21:56:12.862Z,14.87
2018-09-06T21:58:44.911Z,15.03
2018-09-06T22:01:17.019Z,14.80
2018-09-06T22:03:54.740Z,13.47
2018-09-06T22:06:26.839Z,14.70
2018-09-06T22:08:58.932Z,15.33
2018-09-06T22:11:31.012Z,16.70
2018-09-06T22:14:03.104Z,15.33
2018-09-06T22:16:35.209Z,15.77
2018-09-06T22:19:07.758Z,16.63
2018-09-06T22:21:39.935Z,15.10
2018-09-06T22:24:12.011Z,16.53
2018-09-06T22:26:44.164Z,15.97
2018-09-06T22:29:16.288Z,15.23
2018-09-06T22:31:48.391Z,17.63
2018-09-06T22:34:20.596Z,16.87
2018-09-06T22:36:52.791Z,15.67
2018-09-06T22:39:24.874Z,16.10
2018-09-06T22:41:57.029Z,17.53
2018-09-06T22:44:29.121Z,14.23
2018-09-06T22:47:01.263Z,15.70
2018-09-06T22:49:33.397Z,15.47
2018-09-06T22:52:05.544Z,15.30
2018-09-06T22:54:37.578Z,13.77
2018-09-06T22:57:09.624Z,14.70
2018-09-06T22:59:41.656Z,15.97
2018-09-06T23:02:13.778Z,14.43
2018-09-06T23:04:45.825Z,14.27
2018-09-06T23:07:17.909Z,13.77
2018-09-06T23:09:49.962Z,14.40
2018-09-06T23:12:22.010Z,14.40
2018-09-06T23:14:54.051Z,14.63
2018-09-06T23:17:26.103Z,14.37
2018-09-06T23:19:58.231Z,14.03
2018-09-06T23:22:30.381Z,15.03
2018-09-06T23:25:02.428Z,13.67
2018-09-06T23:27:34.484Z,13.40
2018-09-06T23:30:06.824Z,12.87
2018-09-06T23:32:38.983Z,12.97
2018-09-06T23:35:11.079Z,12.60
2018-09-06T23:37:43.207Z,14.87
2018-09-06T23:40:15.288Z,12.20
2018-09-06T23:42:47.377Z,13.70
2018-09-06T23:45:19.537Z,13.40
2018-09-06T23:47:51.575Z,13.40
2018-09-06T23:50:23.633Z,13.63
2018-09-06T23:52:55.689Z,13.83
2018-09-06T23:55:27.739Z,13.23
2018-09-06T23:57:59.820Z,14.23
